Airfield :
LOGIN :

Register | Disclaimer

   EN    FR    IT 

 










Legend :    VFR   Marginal VFR   IFR   Intensive IFR   Very Intensive IFR
Visi :
Ceiling :
>= 8 km
>= 3000ft
5 to 8 km
1000 to 3000 ft
1500m to 5 km
500 to 1000 ft
800 to 1500m
200 to 500 ft
< 800m
< 200 ft
Symbols :   Thunderstorms  Fog  Heavy snow  Heavy precipitations  Wind > 20 kt
SIGMETs :     Misc.  Thunderstorms  Icing  Turbulence  Mountain Waves  Volcanic Ashes







- Airport Elevation : 1247 ft
- IATA code : PRG


LKPR - Praha Ruzyne

CURRENT METAR :
  • 171430Z 01007KT 9999 FEW017 BKN025 M03/M06 Q1032 R24/29//95 R30/810295 NOSIG

EXPIRED METARs :
  • 171400Z 01008KT 9999 FEW016 BKN025 M03/M06 Q1032 R24/29//95 R30/810295 NOSIG
  • 171330Z 02005KT 9999 SCT017 BKN021 M03/M06 Q1032 R24/29//95 R30/810295 NOSIG
  • 171300Z 01006KT 9999 SCT016 SCT018 M03/M06 Q1032 R24/29//95 R30/810295 NOSIG
  • 171230Z 36006KT 9999 SCT015 BKN018 M03/M06 Q1032 R24/29//95 R30/810295 NOSIG
  • 171200Z 35006KT 320V040 9999 SCT015 BKN020 M03/M06 Q1032 R24/29//95 R30/810295 NOSIG

TAF TAF LKPR
Valid from the 17 at 12:00 until the 18 at 18:00 UTC


171100Z 1712/1818 01008KT 9999 BKN017
TEMPO 1712/1718 BKN013
BECMG 1720/1723 33004KT 5000 BR BKN010
PROB30
TEMPO 1723/1809 2000 BR BKN005
BECMG 1809/1811 03008KT 9999 SCT025
BECMG 1815/1818 VRB02KT
No reported NOTAMs for that airfield.



MET'MAP, your aeronautical weather chart ! - Copyright ORBIFLY December 2007 - Disclaimer

ORBIFLY MET'MAP TEAM :

Programming & Development : Alexandra Zaïnal
Concept & Development : Baudouin d'Aumeries
Co-Development & Prog : Marc-Olivier Méhu
Technical & hardware support : Manuel Goepfert

Contact : metmap@orbifly.com




SOURCES & CREDITS :

   NOAA